createdAt,value
2018-02-20T00:00:32.335Z,24.53
2018-02-20T00:02:59.821Z,24.07
2018-02-20T00:05:27.339Z,23.37
2018-02-20T00:07:54.835Z,24.60
2018-02-20T00:10:22.362Z,24.33
2018-02-20T00:12:49.847Z,23.47
2018-02-20T00:15:17.356Z,26.03
2018-02-20T00:17:44.851Z,24.43
2018-02-20T00:20:12.372Z,23.17
2018-02-20T00:22:39.881Z,24.60
2018-02-20T00:25:07.407Z,24.70
2018-02-20T00:27:34.891Z,24.47
2018-02-20T00:30:02.385Z,23.63
2018-02-20T00:32:29.963Z,22.37
2018-02-20T00:34:57.464Z,22.30
2018-02-20T00:37:24.980Z,24.07
2018-02-20T00:39:52.516Z,23.43
2018-02-20T00:42:20.032Z,22.63
2018-02-20T00:44:47.520Z,22.70
2018-02-20T00:47:15.031Z,22.60
2018-02-20T00:49:42.537Z,23.47
2018-02-20T00:54:38.115Z,23.93
2018-02-20T00:57:05.640Z,22.13
2018-02-20T00:59:33.191Z,24.23
2018-02-20T01:02:00.701Z,23.10
2018-02-20T01:04:28.222Z,22.30
2018-02-20T01:06:55.735Z,23.83
2018-02-20T01:09:23.232Z,25.43
2018-02-20T01:11:50.739Z,24.20
2018-02-20T01:14:18.227Z,24.67
2018-02-20T01:16:45.742Z,24.40
2018-02-20T01:19:13.244Z,24.43
2018-02-20T01:21:40.759Z,25.93
2018-02-20T01:24:08.259Z,26.27
2018-02-20T01:26:35.771Z,26.07
2018-02-20T01:29:03.277Z,25.17
2018-02-20T01:31:30.835Z,23.87
2018-02-20T01:33:58.336Z,24.87
2018-02-20T01:36:25.848Z,27.87
2018-02-20T01:38:53.334Z,26.13
2018-02-20T01:41:20.842Z,24.73
2018-02-20T01:43:48.333Z,25.30
2018-02-20T01:46:15.839Z,25.60
2018-02-20T01:48:43.334Z,25.33
2018-02-20T01:51:10.840Z,25.30
2018-02-20T01:53:38.328Z,25.60
2018-02-20T01:56:05.859Z,24.80
2018-02-20T01:58:33.368Z,25.07
2018-02-20T02:01:00.859Z,26.10
2018-02-20T02:03:28.368Z,25.67
2018-02-20T02:05:55.867Z,23.63
2018-02-20T02:08:24.347Z,24.83
2018-02-20T02:10:51.850Z,24.47
2018-02-20T02:13:19.367Z,26.10
2018-02-20T02:15:46.863Z,25.70
2018-02-20T02:18:14.383Z,25.87
2018-02-20T02:20:41.888Z,26.83
2018-02-20T02:23:09.399Z,26.53
2018-02-20T02:25:36.887Z,25.00
2018-02-20T02:28:04.404Z,24.13
2018-02-20T02:30:31.893Z,25.83
2018-02-20T02:32:59.408Z,26.87
2018-02-20T02:35:26.908Z,24.90
2018-02-20T02:37:58.660Z,26.53
2018-02-20T02:40:26.185Z,26.13
2018-02-20T02:42:53.696Z,26.17
2018-02-20T02:45:21.184Z,25.90
2018-02-20T02:47:48.700Z,25.23
2018-02-20T02:50:16.192Z,28.07
2018-02-20T02:52:43.725Z,24.60
2018-02-20T02:55:11.211Z,25.63
2018-02-20T02:57:38.716Z,27.33
2018-02-20T03:00:06.200Z,24.67
2018-02-20T03:02:33.722Z,26.20
2018-02-20T03:05:01.220Z,24.83
2018-02-20T03:07:28.763Z,24.40
2018-02-20T03:09:56.252Z,25.10
2018-02-20T03:12:23.816Z,26.23
2018-02-20T03:14:51.364Z,24.00
2018-02-20T03:17:18.895Z,25.07
2018-02-20T03:19:46.379Z,27.43
2018-02-20T03:22:13.909Z,25.53
2018-02-20T03:24:41.408Z,23.97
2018-02-20T03:27:09.934Z,26.27
2018-02-20T03:29:37.418Z,24.37
2018-02-20T03:32:04.916Z,23.27
2018-02-20T03:34:32.433Z,24.10
2018-02-20T03:36:59.923Z,24.57
2018-02-20T03:39:27.441Z,24.17
2018-02-20T03:41:54.928Z,25.13
2018-02-20T03:44:22.446Z,24.13
2018-02-20T03:46:49.939Z,24.13
2018-02-20T03:49:17.467Z,25.47
2018-02-20T03:51:44.973Z,23.10
2018-02-20T03:54:12.503Z,23.03
2018-02-20T03:56:39.991Z,23.53
2018-02-20T03:59:07.508Z,23.53
2018-02-20T04:01:34.999Z,23.10
2018-02-20T04:04:02.523Z,23.13
2018-02-20T04:06:30.024Z,25.50
2018-02-20T04:08:57.547Z,25.30
2018-02-20T04:11:25.032Z,23.67
2018-02-20T04:13:52.596Z,23.93
2018-02-20T04:16:20.191Z,25.40
2018-02-20T04:18:47.695Z,23.63
2018-02-20T04:21:15.187Z,23.80
2018-02-20T04:23:42.699Z,25.10
2018-02-20T04:26:10.195Z,22.30
2018-02-20T04:28:37.730Z,24.67
2018-02-20T04:31:05.222Z,24.30
2018-02-20T04:33:32.734Z,25.60
2018-02-20T04:36:00.502Z,25.50
2018-02-20T04:38:28.060Z,25.20
2018-02-20T04:40:55.553Z,25.97
2018-02-20T04:43:23.075Z,27.10
2018-02-20T04:45:50.575Z,28.00
2018-02-20T04:48:18.087Z,25.77
2018-02-20T04:50:45.582Z,27.30
2018-02-20T04:53:13.116Z,24.90
2018-02-20T04:55:40.615Z,27.77
2018-02-20T04:58:08.124Z,26.87
2018-02-20T05:00:35.615Z,26.57
2018-02-20T05:03:03.129Z,27.50
2018-02-20T05:05:30.650Z,26.87
2018-02-20T05:07:58.144Z,26.80
2018-02-20T05:10:25.663Z,26.27
2018-02-20T05:12:53.192Z,28.53
2018-02-20T05:15:20.744Z,28.43
2018-02-20T05:17:48.235Z,27.37
2018-02-20T05:20:15.760Z,27.10
2018-02-20T05:22:43.327Z,28.80
2018-02-20T05:25:10.880Z,30.50
2018-02-20T05:27:38.379Z,28.93
2018-02-20T05:30:05.912Z,27.00
2018-02-20T05:32:33.420Z,27.67
2018-02-20T05:35:01.020Z,27.17
2018-02-20T05:37:28.520Z,27.83
2018-02-20T05:39:56.040Z,29.27
2018-02-20T05:42:24.143Z,28.73
2018-02-20T05:44:51.772Z,27.13
2018-02-20T05:47:19.327Z,28.33
2018-02-20T05:49:46.904Z,29.97
2018-02-20T05:52:14.452Z,27.37
2018-02-20T05:54:41.968Z,29.00
2018-02-20T05:57:09.485Z,30.47
2018-02-20T05:59:37.002Z,28.43
2018-02-20T06:02:04.505Z,28.53
2018-02-20T06:04:32.036Z,29.80
2018-02-20T06:06:59.628Z,27.47
2018-02-20T06:09:27.240Z,26.50
2018-02-20T06:11:54.733Z,26.97
2018-02-20T06:14:22.430Z,28.40
2018-02-20T06:16:49.946Z,26.60
2018-02-20T06:19:17.464Z,27.13
2018-02-20T06:21:44.960Z,26.37
2018-02-20T06:24:12.615Z,25.60
2018-02-20T06:26:40.197Z,26.23
2018-02-20T06:29:07.715Z,26.27
2018-02-20T06:31:35.209Z,27.37
2018-02-20T06:34:02.769Z,26.97
2018-02-20T06:36:30.322Z,25.47
2018-02-20T06:38:57.895Z,26.33
2018-02-20T06:41:25.384Z,27.27
2018-02-20T06:43:52.926Z,26.30
2018-02-20T06:46:20.560Z,26.00
2018-02-20T06:48:48.060Z,26.57
2018-02-20T06:51:15.679Z,26.03
2018-02-20T06:53:43.167Z,26.37
2018-02-20T06:56:10.727Z,27.70
2018-02-20T06:58:38.227Z,29.27
2018-02-20T07:01:05.767Z,29.23
2018-02-20T07:03:33.275Z,28.47
2018-02-20T07:06:00.840Z,28.40
2018-02-20T07:08:28.336Z,31.73
2018-02-20T07:10:56.755Z,30.00
2018-02-20T07:13:24.243Z,30.90
2018-02-20T07:15:51.756Z,31.97
2018-02-20T07:18:19.348Z,29.63
2018-02-20T07:20:46.867Z,32.20
2018-02-20T07:23:14.468Z,31.83
2018-02-20T07:25:41.983Z,26.67
2018-02-20T07:28:09.480Z,26.87
2018-02-20T07:30:36.987Z,26.33
2018-02-20T07:33:04.505Z,25.97
2018-02-20T07:35:32.020Z,25.57
2018-02-20T07:37:59.507Z,27.00
2018-02-20T07:40:27.179Z,27.63
2018-02-20T07:42:54.739Z,26.80
2018-02-20T07:45:23.211Z,26.53
2018-02-20T07:47:50.764Z,29.03
2018-02-20T07:50:18.335Z,26.37
2018-02-20T07:52:45.860Z,28.33
2018-02-20T07:55:13.373Z,28.10
2018-02-20T07:57:40.870Z,26.70
2018-02-20T08:00:08.394Z,26.80
2018-02-20T08:02:35.885Z,27.27
2018-02-20T08:05:03.410Z,26.93
2018-02-20T08:07:30.905Z,26.37
2018-02-20T08:09:58.415Z,28.17
2018-02-20T08:12:25.973Z,26.90
2018-02-20T08:14:53.503Z,27.07
2018-02-20T08:17:21.028Z,25.63
2018-02-20T08:19:48.549Z,27.20
2018-02-20T08:22:16.119Z,26.47
2018-02-20T08:24:43.612Z,25.50
2018-02-20T08:27:11.192Z,26.07
2018-02-20T08:29:38.686Z,24.40
2018-02-20T08:32:06.207Z,25.13
2018-02-20T08:34:33.704Z,26.00
2018-02-20T08:37:01.260Z,24.77
2018-02-20T08:39:28.787Z,26.67
2018-02-20T08:41:56.375Z,27.33
2018-02-20T08:44:23.939Z,25.07
2018-02-20T08:46:51.472Z,27.00
2018-02-20T08:49:19.059Z,26.90
2018-02-20T08:51:46.841Z,25.27
2018-02-20T08:54:14.332Z,24.03
2018-02-20T08:56:41.840Z,24.23
2018-02-20T08:59:09.351Z,22.77
2018-02-20T09:01:36.891Z,22.70
2018-02-20T09:04:04.424Z,23.13
2018-02-20T09:06:31.940Z,22.13
2018-02-20T09:08:59.432Z,20.73
2018-02-20T09:11:26.941Z,22.00
2018-02-20T09:13:54.435Z,20.93
2018-02-20T09:16:21.984Z,20.20
2018-02-20T09:18:49.671Z,19.07
2018-02-20T09:21:17.184Z,20.37
2018-02-20T09:23:44.691Z,19.30
2018-02-20T09:26:12.199Z,19.80
2018-02-20T09:28:39.688Z,20.63
2018-02-20T09:31:07.262Z,21.00
2018-02-20T09:33:34.748Z,19.50
2018-02-20T09:36:02.276Z,19.37
2018-02-20T09:38:29.857Z,21.17
2018-02-20T09:40:57.404Z,19.63
2018-02-20T09:43:24.963Z,18.97
2018-02-20T09:45:52.510Z,19.43
2018-02-20T09:48:20.000Z,20.40
2018-02-20T09:50:47.493Z,22.47
2018-02-20T09:53:15.003Z,21.37
2018-02-20T09:55:42.491Z,22.07
2018-02-20T09:58:10.135Z,22.00
2018-02-20T10:00:37.692Z,19.83
2018-02-20T10:03:05.264Z,22.53
2018-02-20T10:05:32.759Z,22.87
2018-02-20T10:08:00.324Z,22.87
2018-02-20T10:10:27.920Z,21.93
2018-02-20T10:12:55.432Z,23.87
2018-02-20T10:15:22.936Z,23.67
2018-02-20T10:17:50.495Z,24.03
2018-02-20T10:20:18.018Z,22.30
2018-02-20T10:22:45.620Z,22.17
2018-02-20T10:25:13.107Z,22.80
2018-02-20T10:27:40.615Z,22.03
2018-02-20T10:30:08.104Z,22.20
2018-02-20T10:32:35.644Z,21.23
2018-02-20T10:35:03.135Z,20.13
2018-02-20T10:37:30.666Z,21.47
2018-02-20T10:39:58.152Z,20.67
2018-02-20T10:42:25.671Z,18.43
2018-02-20T10:44:53.175Z,18.90
2018-02-20T10:47:20.698Z,19.73
2018-02-20T10:49:48.195Z,19.20
2018-02-20T10:52:15.733Z,18.33
2018-02-20T10:54:43.277Z,18.47
2018-02-20T10:57:10.793Z,19.37
2018-02-20T10:59:38.291Z,16.87
2018-02-20T11:02:05.803Z,16.50
2018-02-20T11:04:33.304Z,17.70
2018-02-20T11:07:01.687Z,19.50
2018-02-20T11:09:29.225Z,17.97
2018-02-20T11:11:56.731Z,18.00
2018-02-20T11:14:24.276Z,17.00
2018-02-20T11:16:51.973Z,18.23
2018-02-20T11:19:19.347Z,17.37
2018-02-20T11:21:46.843Z,18.77
2018-02-20T11:24:14.355Z,19.97
2018-02-20T11:26:41.867Z,19.93
2018-02-20T11:29:09.410Z,19.73
2018-02-20T11:31:36.975Z,18.57
2018-02-20T11:34:04.543Z,18.97
2018-02-20T11:36:32.108Z,18.87
2018-02-20T11:38:59.624Z,19.80
2018-02-20T11:41:27.118Z,19.13
2018-02-20T11:43:54.636Z,20.87
2018-02-20T11:46:23.159Z,19.70
2018-02-20T11:48:50.718Z,21.17
2018-02-20T11:51:18.209Z,20.33
2018-02-20T11:53:45.735Z,20.73
2018-02-20T11:56:13.228Z,19.77
2018-02-20T11:58:40.750Z,20.47
2018-02-20T12:01:08.239Z,20.17
2018-02-20T12:03:35.872Z,20.63
2018-02-20T12:06:03.368Z,21.07
2018-02-20T12:08:30.888Z,22.13
2018-02-20T12:10:58.396Z,20.47
2018-02-20T12:13:25.948Z,19.47
2018-02-20T12:15:53.442Z,21.53
2018-02-20T12:18:21.029Z,22.07
2018-02-20T12:20:48.515Z,20.80
2018-02-20T12:23:16.045Z,20.63
2018-02-20T12:25:43.703Z,21.33
2018-02-20T12:28:11.220Z,21.70
2018-02-20T12:30:38.708Z,19.30
2018-02-20T12:33:06.263Z,21.10
2018-02-20T12:35:33.751Z,18.10
2018-02-20T12:38:01.267Z,20.13
2018-02-20T12:40:28.764Z,21.67
2018-02-20T12:42:56.285Z,19.87
2018-02-20T12:45:23.775Z,19.63
2018-02-20T12:47:51.291Z,20.00
2018-02-20T12:50:18.790Z,23.83
2018-02-20T12:52:46.357Z,21.40
2018-02-20T12:55:13.912Z,20.60
2018-02-20T12:57:41.404Z,20.73
2018-02-20T13:00:08.931Z,19.33
2018-02-20T13:02:36.423Z,20.07
2018-02-20T13:05:03.964Z,19.20
2018-02-20T13:07:31.504Z,18.83
2018-02-20T13:09:59.063Z,20.70
2018-02-20T13:12:26.627Z,21.77
2018-02-20T13:14:54.148Z,22.53
2018-02-20T13:17:21.640Z,21.53
2018-02-20T13:19:49.206Z,21.37
2018-02-20T13:22:16.758Z,21.33
2018-02-20T13:24:44.272Z,19.70
2018-02-20T13:27:11.760Z,21.50
2018-02-20T13:29:39.271Z,22.00
2018-02-20T13:32:06.760Z,20.80
2018-02-20T13:34:34.355Z,18.77
2018-02-20T13:37:01.911Z,20.93
2018-02-20T13:39:29.427Z,19.00
2018-02-20T13:41:57.057Z,19.37
2018-02-20T13:44:24.580Z,18.63
2018-02-20T13:46:52.072Z,20.27
2018-02-20T13:49:19.600Z,20.33
2018-02-20T13:51:47.166Z,20.10
2018-02-20T13:54:14.682Z,22.97
2018-02-20T13:56:42.226Z,21.33
2018-02-20T13:59:09.756Z,23.03
2018-02-20T14:01:37.243Z,19.43
2018-02-20T14:04:04.752Z,20.37
2018-02-20T14:06:32.323Z,19.20
2018-02-20T14:08:59.832Z,20.17
2018-02-20T14:11:27.347Z,19.40
2018-02-20T14:13:54.891Z,21.30
2018-02-20T14:16:22.407Z,19.80
2018-02-20T14:18:50.020Z,20.70
2018-02-20T14:21:17.521Z,20.03
2018-02-20T14:23:45.032Z,20.40
2018-02-20T14:26:12.595Z,21.07
2018-02-20T14:28:40.079Z,19.57
2018-02-20T14:31:07.634Z,17.70
2018-02-20T14:33:35.328Z,18.77
2018-02-20T14:36:02.836Z,20.77
2018-02-20T14:38:30.414Z,21.17
2018-02-20T14:40:57.951Z,21.23
2018-02-20T14:43:25.447Z,18.03
2018-02-20T14:45:52.975Z,18.60
2018-02-20T14:48:20.475Z,18.43
2018-02-20T14:50:47.983Z,19.20
2018-02-20T14:53:15.551Z,19.33
2018-02-20T14:55:43.107Z,19.27
2018-02-20T14:58:10.672Z,20.10
2018-02-20T15:00:38.191Z,21.30
2018-02-20T15:03:05.686Z,18.97
2018-02-20T15:05:33.199Z,21.17
2018-02-20T15:08:00.700Z,21.53
2018-02-20T15:10:28.382Z,21.27
2018-02-20T15:12:55.927Z,21.33
2018-02-20T15:15:23.444Z,21.17
2018-02-20T15:17:51.052Z,21.03
2018-02-20T15:20:18.564Z,21.73
2018-02-20T15:22:46.071Z,22.00
2018-02-20T15:25:13.578Z,23.80
2018-02-20T15:27:41.084Z,22.57
2018-02-20T15:30:08.591Z,23.17
2018-02-20T15:32:36.084Z,23.27
2018-02-20T15:35:03.727Z,21.80
2018-02-20T15:37:31.211Z,19.73
2018-02-20T15:39:58.815Z,22.17
2018-02-20T15:42:26.335Z,20.93
2018-02-20T15:44:53.850Z,22.57
2018-02-20T15:47:21.472Z,20.87
2018-02-20T15:49:48.979Z,21.27
2018-02-20T15:52:16.472Z,22.03
2018-02-20T15:54:44.046Z,22.50
2018-02-20T15:57:11.535Z,22.57
2018-02-20T15:59:39.048Z,23.70
2018-02-20T16:02:06.625Z,25.17
2018-02-20T16:04:34.247Z,25.90
2018-02-20T16:07:01.842Z,25.50
2018-02-20T16:09:29.339Z,24.90
2018-02-20T16:11:56.967Z,24.17
2018-02-20T16:14:24.459Z,26.60
2018-02-20T16:16:55.411Z,24.83
2018-02-20T16:19:22.928Z,27.10
2018-02-20T16:21:50.460Z,26.97
2018-02-20T16:24:17.959Z,26.07
2018-02-20T16:26:45.484Z,26.33
2018-02-20T16:29:12.980Z,24.17
2018-02-20T16:31:40.529Z,26.50
2018-02-20T16:34:08.059Z,25.53
2018-02-20T16:36:35.576Z,25.57
2018-02-20T16:39:03.175Z,28.33
2018-02-20T16:41:30.767Z,27.97
2018-02-20T16:43:58.264Z,26.57
2018-02-20T16:46:25.777Z,28.03
2018-02-20T16:48:53.315Z,27.07
2018-02-20T16:51:20.857Z,28.93
2018-02-20T16:53:48.343Z,26.77
2018-02-20T16:56:16.525Z,26.83
2018-02-20T16:58:44.024Z,27.03
2018-02-20T17:01:11.632Z,25.40
2018-02-20T17:03:39.199Z,29.20
2018-02-20T17:06:06.715Z,27.07
2018-02-20T17:08:34.200Z,26.97
2018-02-20T17:11:01.740Z,27.33
2018-02-20T17:13:29.236Z,26.40
2018-02-20T17:15:56.764Z,26.63
2018-02-20T17:18:24.340Z,27.17
2018-02-20T17:20:51.871Z,28.47
2018-02-20T17:23:19.364Z,29.67
2018-02-20T17:25:46.876Z,28.13
2018-02-20T17:28:14.477Z,25.23
2018-02-20T17:30:43.079Z,26.33
2018-02-20T17:33:10.653Z,26.23
2018-02-20T17:35:38.181Z,25.70
2018-02-20T17:38:06.641Z,27.37
2018-02-20T17:40:35.107Z,25.33
2018-02-20T17:43:02.641Z,24.33
2018-02-20T17:45:30.132Z,24.90
2018-02-20T17:47:57.661Z,24.87
2018-02-20T17:50:26.080Z,22.33
2018-02-20T17:52:53.676Z,24.33
2018-02-20T17:55:21.211Z,22.03
2018-02-20T17:57:48.721Z,23.57
2018-02-20T18:00:16.203Z,22.37
2018-02-20T18:02:43.716Z,20.03
2018-02-20T18:05:11.255Z,21.47
2018-02-20T18:07:38.812Z,20.93
2018-02-20T18:10:06.372Z,21.50
2018-02-20T18:12:33.885Z,22.03
2018-02-20T18:15:01.392Z,21.00
2018-02-20T18:17:28.958Z,21.43
2018-02-20T18:19:56.456Z,22.97
2018-02-20T18:22:24.892Z,21.93
2018-02-20T18:24:52.385Z,22.17
2018-02-20T18:27:19.904Z,22.93
2018-02-20T18:29:47.475Z,22.00
2018-02-20T18:32:15.027Z,24.83
2018-02-20T18:34:42.539Z,21.47
2018-02-20T18:37:10.055Z,21.97
2018-02-20T18:39:37.567Z,21.67
2018-02-20T18:42:05.080Z,21.00
2018-02-20T18:44:32.605Z,21.40
2018-02-20T18:47:00.119Z,23.60
2018-02-20T18:49:27.653Z,19.97
2018-02-20T18:51:55.164Z,20.43
2018-02-20T18:54:22.685Z,19.80
2018-02-20T18:56:50.220Z,21.57
2018-02-20T18:59:17.784Z,21.50
2018-02-20T19:01:45.295Z,22.27
2018-02-20T19:04:12.788Z,21.97
2018-02-20T19:06:40.361Z,23.30
2018-02-20T19:09:07.848Z,21.17
2018-02-20T19:11:35.373Z,22.87
2018-02-20T19:14:02.858Z,22.13
2018-02-20T19:16:30.384Z,23.60
2018-02-20T19:18:57.895Z,23.40
2018-02-20T19:21:25.400Z,22.27
2018-02-20T19:23:52.917Z,25.33
2018-02-20T19:26:20.407Z,24.77
2018-02-20T19:28:47.929Z,19.03
2018-02-20T19:31:15.439Z,21.77
2018-02-20T19:33:42.956Z,21.97
2018-02-20T19:36:11.454Z,20.47
2018-02-20T19:38:39.043Z,21.23
2018-02-20T19:41:06.596Z,18.23
2018-02-20T19:43:34.160Z,17.17
2018-02-20T19:46:01.673Z,18.00
2018-02-20T19:48:29.227Z,15.93
2018-02-20T19:50:56.741Z,20.17
2018-02-20T19:53:24.303Z,17.60
2018-02-20T19:55:53.280Z,17.10
2018-02-20T19:58:20.842Z,18.00
2018-02-20T20:00:48.388Z,17.37
2018-02-20T20:03:15.912Z,17.97
2018-02-20T20:05:43.399Z,17.03
2018-02-20T20:08:10.949Z,18.20
2018-02-20T20:10:38.566Z,16.73
2018-02-20T20:13:06.076Z,15.67
2018-02-20T20:15:33.573Z,17.13
2018-02-20T20:18:01.284Z,18.33
2018-02-20T20:20:36.906Z,18.40
2018-02-20T20:22:56.372Z,18.27
2018-02-20T20:25:23.879Z,18.97
2018-02-20T20:27:51.439Z,18.77
2018-02-20T20:30:18.947Z,17.70
2018-02-20T20:32:46.468Z,19.00
2018-02-20T20:35:13.957Z,17.17
2018-02-20T20:37:41.488Z,18.50
2018-02-20T20:40:09.118Z,16.67
2018-02-20T20:42:45.617Z,17.00
2018-02-20T20:45:13.603Z,17.63
2018-02-20T20:47:41.165Z,17.33
2018-02-20T20:50:08.724Z,16.90
2018-02-20T20:52:36.294Z,15.70
2018-02-20T20:55:03.791Z,17.57
2018-02-20T20:57:31.295Z,18.07
2018-02-20T20:59:58.959Z,17.27
2018-02-20T21:02:26.463Z,16.73
2018-02-20T21:04:53.992Z,16.10
2018-02-20T21:07:21.547Z,16.20
2018-02-20T21:09:49.095Z,16.50
2018-02-20T21:12:16.859Z,16.67
2018-02-20T21:14:44.372Z,16.33
2018-02-20T21:17:11.880Z,17.07
2018-02-20T21:19:39.575Z,16.77
2018-02-20T21:22:07.100Z,16.67
2018-02-20T21:24:34.612Z,17.30
2018-02-20T21:27:02.211Z,16.63
2018-02-20T21:29:29.727Z,16.37
2018-02-20T21:31:57.215Z,16.83
2018-02-20T21:34:24.736Z,16.53
2018-02-20T21:36:52.262Z,17.40
2018-02-20T21:39:19.812Z,16.63
2018-02-20T21:41:47.299Z,16.30
2018-02-20T21:44:14.825Z,17.23
2018-02-20T21:46:43.288Z,17.33
2018-02-20T21:49:10.804Z,17.60
2018-02-20T21:51:38.292Z,17.77
2018-02-20T21:54:05.802Z,17.60
2018-02-20T21:56:33.291Z,17.30
2018-02-20T21:59:00.805Z,17.17
2018-02-20T22:01:28.305Z,16.60
2018-02-20T22:03:55.821Z,16.97
2018-02-20T22:06:23.338Z,16.77
2018-02-20T22:08:50.891Z,16.40
2018-02-20T22:11:18.409Z,17.57
2018-02-20T22:13:45.975Z,17.00
2018-02-20T22:16:13.430Z,16.80
2018-02-20T22:18:40.947Z,17.30
2018-02-20T22:21:08.432Z,16.83
2018-02-20T22:23:35.943Z,17.83
2018-02-20T22:26:03.484Z,19.33
2018-02-20T22:28:31.007Z,17.83
2018-02-20T22:30:58.568Z,19.23
2018-02-20T22:33:26.085Z,17.83
2018-02-20T22:35:53.691Z,17.67
2018-02-20T22:38:21.249Z,16.47
2018-02-20T22:40:48.799Z,18.43
2018-02-20T22:43:16.395Z,17.53
2018-02-20T22:45:44.144Z,17.97
2018-02-20T22:48:11.674Z,18.77
2018-02-20T22:50:39.248Z,18.43
2018-02-20T22:53:06.749Z,18.00
2018-02-20T22:55:34.371Z,20.17
2018-02-20T22:58:01.907Z,19.80
2018-02-20T23:00:29.427Z,19.97
2018-02-20T23:02:56.922Z,21.53
2018-02-20T23:05:24.463Z,19.57
2018-02-20T23:07:52.901Z,20.67
2018-02-20T23:10:20.411Z,18.90
2018-02-20T23:12:47.952Z,19.30
2018-02-20T23:15:15.763Z,18.70
2018-02-20T23:17:43.260Z,19.40
2018-02-20T23:20:10.796Z,19.40
2018-02-20T23:22:38.396Z,18.90
2018-02-20T23:25:05.959Z,19.17
2018-02-20T23:27:33.451Z,18.83
2018-02-20T23:30:00.968Z,19.40
2018-02-20T23:32:28.466Z,19.20
2018-02-20T23:34:56.000Z,17.67
2018-02-20T23:37:23.543Z,18.20
2018-02-20T23:39:51.095Z,18.60
2018-02-20T23:42:18.603Z,17.90
2018-02-20T23:44:46.116Z,18.20
2018-02-20T23:47:13.690Z,18.53
2018-02-20T23:49:41.291Z,16.73
2018-02-20T23:52:08.780Z,17.20
2018-02-20T23:54:36.371Z,17.70
2018-02-20T23:57:03.900Z,18.00
2018-02-20T23:59:31.424Z,17.93
